createdAt,value
2023-04-24T00:08:20.420Z,8.7
2023-04-24T00:18:21.158Z,10.2
2023-04-24T00:28:21.090Z,9.4
2023-04-24T00:38:20.861Z,8.7
2023-04-24T00:48:21.341Z,8.9
2023-04-24T00:58:22.545Z,8.4
2023-04-24T01:08:22.114Z,9.1
2023-04-24T01:18:25.916Z,9.8
2023-04-24T01:28:23.431Z,10.5
2023-04-24T01:38:24.288Z,8.3
2023-04-24T01:48:24.618Z,8.2
2023-04-24T01:58:24.306Z,7.5
2023-04-24T02:08:24.381Z,7.5
2023-04-24T02:18:25.286Z,4.9
2023-04-24T02:28:25.324Z,7.6
2023-04-24T02:38:25.037Z,8.5
2023-04-24T02:48:25.533Z,7
2023-04-24T02:58:26.749Z,6.8
2023-04-24T03:08:07.276Z,7
2023-04-24T03:18:07.728Z,6.8
2023-04-24T03:28:07.329Z,7.2
2023-04-24T03:38:06.966Z,8.8
2023-04-24T03:48:06.838Z,8.4
2023-04-24T03:58:07.565Z,7.8
2023-04-24T04:08:15.963Z,3.8
2023-04-24T04:18:21.652Z,8.2
2023-04-24T04:28:25.582Z,8.4
2023-04-24T04:38:28.000Z,8.6
2023-04-24T04:48:30.298Z,9.1
2023-04-24T04:58:32.109Z,8.9
2023-04-24T05:08:32.418Z,6.4
2023-04-24T05:18:32.907Z,9.6
2023-04-24T05:28:33.129Z,7.3
2023-04-24T05:38:37.669Z,9.3
2023-04-24T05:48:45.342Z,2.5
2023-04-24T05:59:01.940Z,9.4
2023-04-24T06:09:18.496Z,-4.6
2023-04-24T06:19:34.190Z,-4.9
2023-04-24T06:29:51.619Z,10.6
2023-04-24T06:40:08.409Z,11.4
2023-04-24T06:50:24.005Z,12.6
2023-04-24T07:00:41.249Z,13.3
2023-04-24T07:10:57.976Z,18.1
2023-04-24T07:21:16.592Z,16.4
2023-04-24T07:31:35.669Z,18.8
2023-04-24T07:41:52.457Z,24.2
2023-04-24T07:52:07.860Z,28.2
2023-04-24T08:02:23.011Z,29.7
2023-04-24T08:12:38.671Z,31
2023-04-24T08:22:54.148Z,4.9
2023-04-24T08:33:13.966Z,13.9
2023-04-24T08:43:34.313Z,15.2
2023-04-24T08:53:51.569Z,10.6
2023-04-24T09:08:23.467Z,29.4
2023-04-24T09:18:38.732Z,27
2023-04-24T09:28:52.970Z,26.4
2023-04-24T09:39:08.399Z,27.3
2023-04-24T09:49:23.171Z,21.4
2023-04-24T09:59:39.887Z,9.4
2023-04-24T10:10:01.330Z,17.7
2023-04-24T10:20:22.495Z,14.6
2023-04-24T10:30:43.159Z,12.8
2023-04-24T10:41:02.251Z,17.2
2023-04-24T10:51:23.088Z,17.6
2023-04-24T11:01:41.422Z,22.5
2023-04-24T11:11:52.698Z,21.6
2023-04-24T11:21:53.621Z,16.6
2023-04-24T11:32:01.875Z,18.8
2023-04-24T11:42:14.661Z,14.3
2023-04-24T11:52:28.411Z,16.4
2023-04-24T12:02:46.556Z,13.6
2023-04-24T12:13:05.418Z,7.1
2023-04-24T12:23:24.588Z,16.9
2023-04-24T12:33:43.239Z,16.6
2023-04-24T12:44:01.895Z,15.3
2023-04-24T12:54:21.122Z,16.3
2023-04-24T13:04:37.415Z,19.1
2023-04-24T13:14:56.675Z,16.1
2023-04-24T13:25:17.157Z,14.8
2023-04-24T13:35:35.939Z,17.8
2023-04-24T13:45:47.610Z,13.1
2023-04-24T13:56:02.069Z,13.8
2023-04-24T15:08:10.047Z,18.2
2023-04-24T15:18:11.634Z,13
2023-04-24T15:28:13.184Z,17.8
2023-04-24T15:38:12.783Z,17.8
2023-04-24T15:48:12.282Z,18.1
2023-04-24T15:58:11.503Z,16.3
2023-04-24T16:08:12.349Z,16.1
2023-04-24T16:18:13.403Z,17.4
2023-04-24T16:28:16.084Z,15.4
2023-04-24T16:38:16.397Z,15.4
2023-04-24T16:48:18.600Z,15.1
2023-04-24T16:58:21.723Z,10
2023-04-24T17:08:22.025Z,11.6
2023-04-24T17:18:22.473Z,14.1
2023-04-24T17:28:22.208Z,14.4
2023-04-24T17:38:21.480Z,14.4
2023-04-24T17:48:21.947Z,14.6
2023-04-24T17:58:22.601Z,13
2023-04-24T18:08:21.817Z,13.1
2023-04-24T18:18:22.116Z,8.3
2023-04-24T18:28:21.646Z,12.9
2023-04-24T18:38:21.211Z,12.8
2023-04-24T18:48:20.821Z,10.6
2023-04-24T18:58:20.639Z,11.6
2023-04-24T19:08:20.420Z,12.5
2023-04-24T19:18:20.082Z,13.2
2023-04-24T19:28:20.228Z,12.4
2023-04-24T19:38:20.239Z,11.5
2023-04-24T19:48:20.199Z,13.1
2023-04-24T19:58:19.831Z,13.4
2023-04-24T20:08:19.419Z,13
2023-04-24T20:18:19.632Z,11.3
2023-04-24T20:28:20.021Z,8.7
2023-04-24T20:38:18.317Z,9.3
2023-04-24T20:48:18.940Z,11
2023-04-24T20:58:19.107Z,7.6
2023-04-24T21:08:07.564Z,11.1
2023-04-24T21:18:07.843Z,9.3
2023-04-24T21:28:07.689Z,10.8
2023-04-24T21:38:14.821Z,10.3
2023-04-24T21:48:07.737Z,10.4
2023-04-24T21:58:08.589Z,9.9
2023-04-24T22:08:09.774Z,9.1
2023-04-24T22:18:11.390Z,9.1
2023-04-24T22:28:12.464Z,10.3
2023-04-24T22:38:14.668Z,10.6
2023-04-24T22:48:16.115Z,10.1
2023-04-24T22:58:17.878Z,9.8
2023-04-24T23:08:19.289Z,9.6
2023-04-24T23:18:19.875Z,9.1
2023-04-24T23:28:20.161Z,8.4
2023-04-24T23:38:20.381Z,9.4
2023-04-24T23:48:21.242Z,9.1
2023-04-24T23:58:22.140Z,10.3
